Time;durP1;ratioP1;P1;durP2;ratioP2;P2;SDS_P1;SDS_P2;PMS_P1;PMS_P2;Temp;Humidity;BMP_temperature;BMP_pressure;BME280_temperature;BME280_humidity;BME280_pressure;Samples;Min_cycle;Max_cycle;Signal;HPM_P1;HPM_P2
2020/12/17 00:00:30;;;;;;;19.53;8.93;;;5.80;99.90;;;;;;5095684;28;20055;-64
2020/12/17 00:02:56;;;;;;;26.07;9.57;;;5.70;99.90;;;;;;5096183;28;20442;-64
2020/12/17 00:05:22;;;;;;;14.23;5.20;;;5.70;99.90;;;;;;5095806;28;20032;-64
2020/12/17 00:07:55;;;;;;;17.63;5.97;;;5.70;99.90;;;;;;5096270;28;20446;-66
2020/12/17 00:10:21;;;;;;;12.73;5.00;;;5.70;99.90;;;;;;5096194;28;20031;-65
2020/12/17 00:12:49;;;;;;;10.30;5.43;;;5.80;99.90;;;;;;5096005;28;20036;-65
2020/12/17 00:15:16;;;;;;;14.80;6.50;;;5.80;99.90;;;;;;5077854;28;20028;-63
2020/12/17 00:17:50;;;;;;;11.47;4.63;;;5.70;99.90;;;;;;5095757;28;20326;-64
2020/12/17 00:20:19;;;;;;;10.83;4.00;;;5.70;99.90;;;;;;5095247;28;20450;-64
2020/12/17 00:22:45;;;;;;;12.50;4.23;;;5.70;99.90;;;;;;5095694;28;20020;-64
2020/12/17 00:25:13;;;;;;;9.37;3.40;;;5.70;99.90;;;;;;5096580;28;20411;-64
2020/12/17 00:27:42;;;;;;;5.60;3.03;;;5.80;99.90;;;;;;5095640;28;20028;-64
2020/12/17 00:30:11;;;;;;;15.03;3.73;;;5.80;99.90;;;;;;5077927;28;20393;-63
2020/12/17 00:32:37;;;;;;;13.37;3.60;;;5.80;99.90;;;;;;5095800;28;20023;-67
2020/12/17 00:35:04;;;;;;;11.33;4.27;;;5.80;99.90;;;;;;5096072;28;20043;-63
2020/12/17 00:37:32;;;;;;;12.00;4.00;;;5.80;99.90;;;;;;5095818;28;20114;-63
2020/12/17 00:39:58;;;;;;;10.90;3.50;;;5.80;99.90;;;;;;5095808;28;20075;-63
2020/12/17 00:42:23;;;;;;;10.03;3.30;;;5.70;99.90;;;;;;5078229;28;20036;-63
2020/12/17 00:44:49;;;;;;;13.10;4.13;;;5.70;99.90;;;;;;5077520;28;20422;-63
2020/12/17 00:47:15;;;;;;;9.83;3.43;;;5.70;99.90;;;;;;5096042;28;20024;-63
2020/12/17 00:49:42;;;;;;;11.37;3.43;;;5.80;99.90;;;;;;5095750;28;20024;-64
2020/12/17 00:52:08;;;;;;;13.87;4.43;;;5.80;99.90;;;;;;5078120;28;20115;-64
2020/12/17 00:54:33;;;;;;;18.27;4.83;;;5.90;99.90;;;;;;5095904;28;20122;-64
2020/12/17 00:56:59;;;;;;;8.87;3.20;;;6.00;99.90;;;;;;5097089;28;20023;-64
2020/12/17 00:59:25;;;;;;;7.17;3.03;;;6.00;99.90;;;;;;5095880;28;20027;-64
2020/12/17 01:01:50;;;;;;;7.40;2.77;;;6.10;99.90;;;;;;5095456;28;20028;-64
2020/12/17 01:04:16;;;;;;;9.13;2.70;;;6.20;99.90;;;;;;5095973;28;20027;-64
2020/12/17 01:06:42;;;;;;;7.03;2.10;;;6.30;99.90;;;;;;5095042;28;20035;-64
2020/12/17 01:09:09;;;;;;;4.40;1.87;;;6.40;99.90;;;;;;5095772;28;20028;-64
2020/12/17 01:11:35;;;;;;;5.60;1.60;;;6.50;99.90;;;;;;5095802;28;20078;-63
2020/12/17 01:14:00;;;;;;;6.30;2.57;;;6.50;99.90;;;;;;5060731;28;20024;-64
2020/12/17 01:16:26;;;;;;;6.13;2.57;;;6.50;99.90;;;;;;5096076;28;20031;-64
2020/12/17 01:18:52;;;;;;;7.03;2.50;;;6.60;99.90;;;;;;5098349;28;20028;-64
2020/12/17 01:21:18;;;;;;;8.47;2.17;;;6.60;99.90;;;;;;5099361;28;20028;-64
2020/12/17 01:23:44;;;;;;;7.43;2.83;;;6.70;99.90;;;;;;5098819;28;20035;-64
2020/12/17 01:26:10;;;;;;;6.53;2.20;;;6.70;99.90;;;;;;5099276;28;20020;-64
2020/12/17 01:28:40;;;;;;;6.83;2.17;;;6.70;99.90;;;;;;5098736;28;20452;-63
2020/12/17 01:31:11;;;;;;;4.20;1.90;;;6.80;99.90;;;;;;5099051;28;20114;-64
2020/12/17 01:33:37;;;;;;;10.10;1.60;;;6.90;99.90;;;;;;5080925;28;20028;-64
2020/12/17 01:36:07;;;;;;;8.13;3.10;;;7.10;99.90;;;;;;5098534;28;20032;-63
2020/12/17 01:38:34;;;;;;;9.17;2.23;;;7.10;99.90;;;;;;5099048;28;20051;-63
2020/12/17 01:40:59;;;;;;;14.20;2.53;;;7.10;99.90;;;;;;5098576;28;20028;-64
2020/12/17 01:43:25;;;;;;;6.00;1.90;;;7.10;99.90;;;;;;5098834;28;20043;-64
2020/12/17 01:45:52;;;;;;;7.60;1.70;;;7.10;99.90;;;;;;5080493;28;20024;-64
2020/12/17 01:48:19;;;;;;;7.20;1.60;;;7.00;99.90;;;;;;5098499;28;20035;-64
2020/12/17 01:50:46;;;;;;;6.40;2.17;;;7.00;99.90;;;;;;5098754;28;20028;-64
2020/12/17 01:53:12;;;;;;;8.37;2.73;;;7.00;99.90;;;;;;5098605;28;20089;-64
2020/12/17 01:55:38;;;;;;;4.47;2.00;;;7.00;99.90;;;;;;5098277;28;20443;-64
2020/12/17 01:58:06;;;;;;;8.97;1.80;;;7.00;99.90;;;;;;5111236;28;20036;-64
2020/12/17 02:00:36;;;;;;;5.20;2.10;;;7.00;99.90;;;;;;5098515;28;20449;-64
2020/12/17 02:03:04;;;;;;;7.50;2.03;;;6.90;99.90;;;;;;5098048;28;20030;-64
2020/12/17 02:05:30;;;;;;;5.97;1.40;;;6.90;99.90;;;;;;5099106;28;20418;-64
2020/12/17 02:08:00;;;;;;;5.20;1.40;;;6.90;99.90;;;;;;5097854;28;20115;-64
2020/12/17 02:10:27;;;;;;;8.53;1.60;;;6.90;99.90;;;;;;5104643;28;20024;-64
2020/12/17 02:12:53;;;;;;;5.03;1.70;;;6.90;99.90;;;;;;5100575;28;20023;-64
2020/12/17 02:15:21;;;;;;;4.97;1.40;;;6.90;99.90;;;;;;5118831;28;20414;-64
2020/12/17 02:17:47;;;;;;;6.27;1.57;;;6.80;99.90;;;;;;5118962;28;20012;-64
2020/12/17 02:20:14;;;;;;;6.57;1.67;;;6.80;99.90;;;;;;5118037;28;20434;-64
2020/12/17 02:22:40;;;;;;;3.90;1.70;;;6.90;99.90;;;;;;5118251;28;20031;-64
2020/12/17 02:25:11;;;;;;;3.10;1.37;;;6.80;99.90;;;;;;5118164;28;20110;-64
2020/12/17 02:27:37;;;;;;;6.77;2.17;;;6.90;99.90;;;;;;5118133;28;20023;-64
2020/12/17 02:30:05;;;;;;;6.67;1.47;;;6.90;99.90;;;;;;5099740;28;20448;-64
2020/12/17 02:32:31;;;;;;;7.43;1.50;;;7.00;99.90;;;;;;5118094;28;20032;-64
2020/12/17 02:34:57;;;;;;;7.40;2.27;;;7.00;99.90;;;;;;5118471;28;20019;-63
2020/12/17 02:37:23;;;;;;;7.83;1.27;;;7.00;99.90;;;;;;5118098;28;20028;-64
2020/12/17 02:39:48;;;;;;;6.07;1.47;;;7.10;99.90;;;;;;5066677;28;20056;-63
2020/12/17 02:42:14;;;;;;;5.60;1.33;;;7.20;99.90;;;;;;5118338;28;20024;-64
2020/12/17 02:44:40;;;;;;;14.50;1.70;;;7.10;99.90;;;;;;5117828;28;20031;-64
2020/12/17 02:47:06;;;;;;;6.20;1.90;;;7.20;99.90;;;;;;5117675;28;20043;-63
2020/12/17 02:49:31;;;;;;;4.70;1.20;;;7.20;99.90;;;;;;5117794;28;20034;-63
2020/12/17 02:51:57;;;;;;;8.17;1.17;;;7.10;99.90;;;;;;5117929;28;20326;-64
2020/12/17 02:54:23;;;;;;;3.73;1.80;;;7.00;99.90;;;;;;5117639;28;20054;-64
2020/12/17 02:56:48;;;;;;;4.73;1.33;;;7.00;99.90;;;;;;5112228;28;20030;-64
2020/12/17 02:59:14;;;;;;;9.13;1.30;;;7.00;99.90;;;;;;5079199;28;20114;-64
2020/12/17 03:01:40;;;;;;;4.20;1.13;;;6.90;99.90;;;;;;5097691;28;20080;-64
2020/12/17 03:04:06;;;;;;;4.80;1.20;;;6.90;99.90;;;;;;5062402;28;20487;-64
2020/12/17 03:06:32;;;;;;;6.97;1.43;;;6.80;99.90;;;;;;5097135;28;20036;-64
2020/12/17 03:08:57;;;;;;;5.77;1.50;;;6.70;99.90;;;;;;5062429;28;20035;-63
2020/12/17 03:11:23;;;;;;;4.60;1.53;;;6.80;99.90;;;;;;5096825;28;20024;-63
2020/12/17 03:13:48;;;;;;;12.27;1.87;;;6.80;99.90;;;;;;5096929;28;20059;-64
2020/12/17 03:16:14;;;;;;;5.40;1.20;;;6.70;99.90;;;;;;5078638;28;20389;-63
2020/12/17 03:18:40;;;;;;;6.47;1.90;;;6.70;99.90;;;;;;5096560;28;20395;-64
2020/12/17 03:21:06;;;;;;;8.57;2.33;;;6.70;99.90;;;;;;5097218;28;20020;-64
2020/12/17 03:23:31;;;;;;;7.43;2.03;;;6.70;99.90;;;;;;5096824;28;20028;-63
2020/12/17 03:25:57;;;;;;;5.87;1.47;;;6.60;99.90;;;;;;5097085;28;20035;-64
2020/12/17 03:28:22;;;;;;;6.87;1.27;;;6.60;99.90;;;;;;5096514;28;20235;-64
2020/12/17 03:30:48;;;;;;;10.27;1.60;;;6.50;99.90;;;;;;5082443;28;20050;-64
2020/12/17 03:33:14;;;;;;;8.37;2.53;;;6.50;99.90;;;;;;5117177;28;20058;-63
2020/12/17 03:35:39;;;;;;;6.70;1.50;;;6.50;99.90;;;;;;5116973;28;20081;-63
2020/12/17 03:38:05;;;;;;;9.73;2.70;;;6.40;99.90;;;;;;5116836;28;20444;-63
2020/12/17 03:40:31;;;;;;;7.70;1.60;;;6.40;99.90;;;;;;5116292;28;20099;-63
2020/12/17 03:42:56;;;;;;;6.37;1.83;;;6.40;99.90;;;;;;5116785;28;20024;-63
2020/12/17 03:45:22;;;;;;;5.00;1.67;;;6.40;99.90;;;;;;5116296;28;20023;-63
2020/12/17 03:47:48;;;;;;;7.30;1.53;;;6.30;99.90;;;;;;5117271;28;20031;-63
2020/12/17 03:50:14;;;;;;;4.53;2.47;;;6.30;99.90;;;;;;5116581;28;20345;-63
2020/12/17 03:52:40;;;;;;;11.03;3.33;;;6.30;99.90;;;;;;5117224;28;20111;-63
2020/12/17 03:55:06;;;;;;;7.50;1.90;;;6.20;99.90;;;;;;5116616;28;20031;-63
2020/12/17 03:57:32;;;;;;;9.17;2.43;;;6.30;99.90;;;;;;5105084;28;20024;-63
2020/12/17 03:59:58;;;;;;;7.97;2.07;;;6.30;99.90;;;;;;5096332;28;20115;-63
2020/12/17 04:02:24;;;;;;;6.37;1.97;;;6.20;99.90;;;;;;5077817;28;20028;-63
2020/12/17 04:04:50;;;;;;;8.20;3.13;;;6.20;99.90;;;;;;5078937;28;20081;-63
2020/12/17 04:07:15;;;;;;;6.87;1.67;;;6.20;99.90;;;;;;5095978;28;20502;-63
2020/12/17 04:09:42;;;;;;;6.03;2.23;;;6.20;99.90;;;;;;5096513;28;20060;-63
2020/12/17 04:12:08;;;;;;;9.43;3.10;;;6.10;99.90;;;;;;5078313;28;20024;-63
2020/12/17 04:14:34;;;;;;;6.80;2.17;;;6.00;99.90;;;;;;5095726;28;20035;-63
2020/12/17 04:17:00;;;;;;;5.67;2.30;;;6.00;99.90;;;;;;5096227;28;20114;-63
2020/12/17 04:19:26;;;;;;;4.83;1.90;;;5.90;99.90;;;;;;5095238;28;20028;-63
2020/12/17 04:21:51;;;;;;;7.93;1.77;;;6.00;99.90;;;;;;5095758;28;20028;-63
2020/12/17 04:24:17;;;;;;;8.90;2.70;;;6.00;99.90;;;;;;5096226;28;20028;-63
2020/12/17 04:26:49;;;;;;;9.03;1.97;;;6.00;99.90;;;;;;5095819;28;20032;-63
2020/12/17 04:29:15;;;;;;;6.53;1.70;;;6.00;99.90;;;;;;5095790;28;20342;-63
2020/12/17 04:31:40;;;;;;;6.40;1.73;;;6.10;99.90;;;;;;5095461;28;20038;-63
2020/12/17 04:34:06;;;;;;;6.07;1.87;;;6.20;99.90;;;;;;5078315;28;20031;-63
2020/12/17 04:36:32;;;;;;;4.53;1.90;;;6.20;99.90;;;;;;5060943;28;20060;-63
2020/12/17 04:38:58;;;;;;;10.00;2.00;;;6.20;99.90;;;;;;5095971;28;20044;-63
2020/12/17 04:41:25;;;;;;;5.77;1.73;;;6.20;99.90;;;;;;5095370;28;20099;-63
2020/12/17 04:43:51;;;;;;;7.83;1.77;;;6.20;99.90;;;;;;5095611;28;20386;-63
2020/12/17 04:46:19;;;;;;;11.23;2.33;;;6.20;99.90;;;;;;5077376;28;20036;-63
2020/12/17 04:48:51;;;;;;;5.73;1.80;;;6.30;99.90;;;;;;5077465;28;20024;-63
2020/12/17 04:51:18;;;;;;;6.13;1.70;;;6.20;99.90;;;;;;5096355;28;20081;-63
2020/12/17 04:53:46;;;;;;;8.23;2.17;;;6.20;99.90;;;;;;5099544;28;20028;-63
2020/12/17 04:56:15;;;;;;;7.30;2.60;;;6.40;99.90;;;;;;5100005;28;20031;-63
2020/12/17 04:58:49;;;;;;;6.13;1.47;;;6.50;99.90;;;;;;5102831;28;20019;-63
2020/12/17 05:01:15;;;;;;;;;;;6.60;99.90;;;;;;5100434;28;20058;-63
2020/12/17 05:03:45;;;;;;;5.30;1.40;;;6.60;99.90;;;;;;5081154;28;20227;-63
2020/12/17 05:06:18;;;;;;;7.83;1.33;;;6.60;99.90;;;;;;5099675;28;20016;-63
2020/12/17 05:08:44;;;;;;;7.47;2.10;;;6.70;99.90;;;;;;5098719;28;20042;-63
2020/12/17 05:11:10;;;;;;;16.10;2.80;;;6.80;99.90;;;;;;5080861;28;20032;-63
2020/12/17 05:13:35;;;;;;;5.17;1.70;;;6.80;99.90;;;;;;5099572;28;20039;-63
2020/12/17 05:16:01;;;;;;;6.90;1.50;;;6.70;99.90;;;;;;5099292;28;20036;-63
2020/12/17 05:18:26;;;;;;;6.10;2.40;;;6.70;99.90;;;;;;5081076;28;20035;-63
2020/12/17 05:20:54;;;;;;;13.33;2.33;;;6.60;99.90;;;;;;5099171;28;20035;-63
2020/12/17 05:23:23;;;;;;;5.53;2.50;;;6.50;99.90;;;;;;5099236;28;20330;-63
2020/12/17 05:25:51;;;;;;;9.57;2.03;;;6.40;99.90;;;;;;5080938;28;20119;-63
2020/12/17 05:28:17;;;;;;;9.90;2.10;;;6.40;99.90;;;;;;5081201;28;20028;-63
2020/12/17 05:30:42;;;;;;;5.70;3.00;;;6.30;99.90;;;;;;5098751;28;20410;-63
2020/12/17 05:33:08;;;;;;;7.37;2.00;;;6.30;99.90;;;;;;5098838;28;20034;-63
2020/12/17 05:35:35;;;;;;;6.97;2.53;;;6.30;99.90;;;;;;5081302;28;20028;-63
2020/12/17 05:38:06;;;;;;;11.33;2.20;;;6.20;99.90;;;;;;5098793;28;20440;-62
2020/12/17 05:40:36;;;;;;;11.97;3.47;;;6.30;99.90;;;;;;5098450;28;20464;-63
2020/12/17 05:43:02;;;;;;;7.00;2.03;;;6.30;99.90;;;;;;5098729;28;20081;-63
2020/12/17 05:45:29;;;;;;;8.40;2.13;;;6.30;99.90;;;;;;5098676;28;20066;-63
2020/12/17 05:48:11;;;;;;;7.33;1.93;;;6.40;99.90;;;;;;5080695;28;20031;-63
2020/12/17 05:51:01;;;;;;;7.13;2.47;;;6.40;99.90;;;;;;5099086;28;20077;-63
2020/12/17 05:53:29;;;;;;;6.13;1.93;;;6.50;99.90;;;;;;5078798;28;20383;-62
2020/12/17 05:56:06;;;;;;;6.67;1.40;;;6.40;99.90;;;;;;5098517;28;20107;-62
2020/12/17 05:58:39;;;;;;;6.20;1.20;;;6.40;99.90;;;;;;5099774;28;20024;-62
2020/12/17 06:01:10;;;;;;;8.32;3.25;;;6.40;99.90;;;;;;5099169;28;20024;-62
2020/12/17 06:03:35;;;;;;;6.93;2.03;;;6.30;99.90;;;;;;5097989;28;20034;-62
2020/12/17 06:06:05;;;;;;;3.83;2.17;;;6.40;99.90;;;;;;5098397;28;20405;-62
2020/12/17 06:08:37;;;;;;;5.07;1.70;;;6.40;99.90;;;;;;5080140;28;20068;-62
2020/12/17 06:11:08;;;;;;;7.83;1.60;;;6.40;99.90;;;;;;5098377;28;20024;-62
2020/12/17 06:13:39;;;;;;;6.40;1.70;;;6.40;99.90;;;;;;5079023;28;20427;-62
2020/12/17 06:16:07;;;;;;;4.67;1.73;;;6.40;99.90;;;;;;5097622;28;20024;-62
2020/12/17 06:18:54;;;;;;;4.20;1.70;;;6.40;99.90;;;;;;5097826;28;20115;-62
2020/12/17 06:21:21;;;;;;;5.60;1.47;;;6.40;99.90;;;;;;5097888;28;20074;-62
2020/12/17 06:23:54;;;;;;;4.13;1.67;;;6.40;99.90;;;;;;5097832;28;20021;-62
2020/12/17 06:26:21;;;;;;;7.20;1.30;;;6.50;99.90;;;;;;5098251;28;20049;-62
2020/12/17 06:28:48;;;;;;;5.30;1.43;;;6.60;99.90;;;;;;5098023;28;20115;-62
2020/12/17 06:31:17;;;;;;;5.00;1.70;;;6.60;99.90;;;;;;5098052;28;20111;-62
2020/12/17 06:33:44;;;;;;;4.77;1.40;;;6.70;99.90;;;;;;5079879;28;20027;-62
2020/12/17 06:36:40;;;;;;;6.47;1.77;;;6.70;99.90;;;;;;5097742;28;20042;-62
2020/12/17 06:39:06;;;;;;;5.23;1.83;;;6.70;99.90;;;;;;5096721;28;20088;-62
2020/12/17 06:41:33;;;;;;;5.30;1.30;;;6.70;99.90;;;;;;5079381;28;20311;-62
2020/12/17 06:43:59;;;;;;;5.40;1.80;;;6.70;99.90;;;;;;5097901;28;20398;-62
2020/12/17 06:46:29;;;;;;;4.40;1.27;;;6.70;99.90;;;;;;5097318;28;20112;-62
2020/12/17 06:48:55;;;;;;;4.87;0.90;;;6.70;99.90;;;;;;5097947;28;20137;-62
2020/12/17 06:51:38;;;;;;;4.00;1.20;;;6.70;99.90;;;;;;5079375;28;20024;-62
2020/12/17 06:54:24;;;;;;;6.93;1.20;;;6.60;99.90;;;;;;5097928;28;20434;-62
2020/12/17 06:57:18;;;;;;;3.87;1.00;;;6.60;99.90;;;;;;5079875;28;20103;-63
2020/12/17 06:59:46;;;;;;;4.07;1.35;;;6.50;99.90;;;;;;5097318;28;20035;-62
2020/12/17 07:02:17;;;;;;;9.47;2.73;;;6.50;99.90;;;;;;5097400;28;20036;-62
2020/12/17 07:04:48;;;;;;;4.83;1.57;;;6.50;99.90;;;;;;5097088;28;20364;-62
2020/12/17 07:07:18;;;;;;;5.17;1.13;;;6.50;99.90;;;;;;5097539;28;20078;-62
2020/12/17 07:09:52;;;;;;;2.73;1.43;;;6.40;99.90;;;;;;5096901;28;20111;-62
2020/12/17 07:12:36;;;;;;;12.07;3.53;;;6.40;99.90;;;;;;5097112;28;20016;-61
2020/12/17 07:15:04;;;;;;;4.73;1.93;;;6.30;99.90;;;;;;5077464;28;20371;-62
2020/12/17 07:17:30;;;;;;;3.90;2.13;;;6.30;99.90;;;;;;5096863;28;20059;-62
2020/12/17 07:19:56;;;;;;;4.20;1.37;;;6.20;99.90;;;;;;5096632;28;20060;-62
2020/12/17 07:22:22;;;;;;;3.20;1.00;;;6.10;99.90;;;;;;5097229;28;20028;-62
2020/12/17 07:24:52;;;;;;;6.63;2.33;;;6.10;99.90;;;;;;5096857;28;20020;-62
2020/12/17 07:27:27;;;;;;;2.23;1.10;;;6.10;99.90;;;;;;5096675;28;20016;-62
2020/12/17 07:30:01;;;;;;;5.37;1.40;;;6.20;99.90;;;;;;5097079;28;20020;-61
2020/12/17 07:32:33;;;;;;;5.87;1.57;;;6.20;99.90;;;;;;5097389;28;20065;-62
2020/12/17 07:35:06;;;;;;;9.17;2.07;;;6.20;99.90;;;;;;5078963;28;20123;-62
2020/12/17 07:37:48;;;;;;;3.72;1.63;;;6.10;99.90;;;;;;5096731;28;20099;-62
2020/12/17 07:40:14;;;;;;;10.83;1.90;;;6.00;99.90;;;;;;5096243;28;20046;-62
2020/12/17 07:42:40;;;;;;;8.93;1.87;;;6.00;99.90;;;;;;5096574;28;20102;-62
2020/12/17 07:45:06;;;;;;;8.63;2.37;;;6.00;99.90;;;;;;5078630;28;20092;-61
2020/12/17 07:47:32;;;;;;;6.50;1.93;;;6.00;99.90;;;;;;5078160;28;20362;-62
2020/12/17 07:49:58;;;;;;;6.23;2.10;;;5.90;99.90;;;;;;5096442;28;20032;-62
2020/12/17 07:52:34;;;;;;;9.87;3.30;;;5.90;99.90;;;;;;5095751;28;20031;-62
2020/12/17 07:55:02;;;;;;;10.17;2.97;;;6.00;99.90;;;;;;5096632;28;20031;-62
2020/12/17 07:57:28;;;;;;;7.70;2.80;;;6.00;99.90;;;;;;5106393;28;20486;-62
2020/12/17 07:59:54;;;;;;;8.10;2.60;;;6.00;99.90;;;;;;5096036;28;20115;-62
2020/12/17 08:02:19;;;;;;;4.47;2.33;;;6.00;99.90;;;;;;5096148;28;20043;-62
2020/12/17 08:04:53;;;;;;;4.93;1.57;;;5.90;99.90;;;;;;5077849;28;20427;-62
2020/12/17 08:07:21;;;;;;;5.88;1.70;;;6.00;99.90;;;;;;5096240;28;20039;-62
2020/12/17 08:10:00;;;;;;;5.63;1.50;;;6.00;99.90;;;;;;5096083;28;20046;-62
2020/12/17 08:12:26;;;;;;;8.53;2.33;;;6.00;99.90;;;;;;5096566;28;20423;-62
2020/12/17 08:14:53;;;;;;;10.07;1.63;;;5.90;99.90;;;;;;5077620;28;20030;-63
2020/12/17 08:17:19;;;;;;;6.27;1.90;;;6.00;99.90;;;;;;5096219;28;20035;-62
2020/12/17 08:19:58;;;;;;;7.80;2.43;;;6.00;99.90;;;;;;5095080;28;20032;-62
2020/12/17 08:22:29;;;;;;;6.97;1.77;;;6.00;99.90;;;;;;5096493;28;20024;-62
2020/12/17 08:25:03;;;;;;;9.70;1.67;;;6.00;99.90;;;;;;5095674;28;20036;-62
2020/12/17 08:27:29;;;;;;;6.63;2.00;;;6.20;99.90;;;;;;5099825;28;20016;-62
2020/12/17 08:29:54;;;;;;;9.03;3.07;;;6.20;99.90;;;;;;5099358;28;20019;-62
2020/12/17 08:32:20;;;;;;;4.90;2.00;;;6.40;99.90;;;;;;5100396;28;20020;-62
2020/12/17 08:34:56;;;;;;;9.70;2.23;;;6.60;99.90;;;;;;5099948;28;20027;-62
2020/12/17 08:37:23;;;;;;;8.90;2.07;;;6.70;99.90;;;;;;5106773;28;20413;-62
2020/12/17 08:40:04;;;;;;;6.07;1.97;;;6.70;99.90;;;;;;5120367;28;20055;-62
2020/12/17 08:42:35;;;;;;;6.60;2.67;;;6.90;99.90;;;;;;5120067;28;20023;-62
2020/12/17 08:45:08;;;;;;;8.70;2.73;;;7.00;99.90;;;;;;5120398;28;20032;-62
2020/12/17 08:47:39;;;;;;;8.63;1.90;;;7.10;99.90;;;;;;5120639;28;20031;-61
2020/12/17 08:50:09;;;;;;;5.13;2.13;;;7.10;99.90;;;;;;5119953;28;20034;-62
2020/12/17 08:52:35;;;;;;;9.90;2.57;;;7.10;99.90;;;;;;5120105;28;20023;-61
2020/12/17 08:55:05;;;;;;;13.67;2.17;;;7.10;99.90;;;;;;5119852;28;20031;-62
2020/12/17 08:57:32;;;;;;;12.17;3.63;;;7.10;99.90;;;;;;5108188;28;20107;-62
2020/12/17 08:59:58;;;;;;;8.03;2.20;;;7.00;99.90;;;;;;5099265;28;20039;-61
2020/12/17 09:02:28;;;;;;;7.97;2.07;;;7.00;99.90;;;;;;5099035;28;20023;-61
2020/12/17 09:05:03;;;;;;;9.70;2.40;;;6.90;99.90;;;;;;5099515;28;20406;-61
2020/12/17 09:07:31;;;;;;;7.90;2.87;;;6.90;99.90;;;;;;5098819;28;20422;-61
2020/12/17 09:10:13;;;;;;;9.63;2.40;;;6.90;99.90;;;;;;5099525;28;20028;-62
2020/12/17 09:12:39;;;;;;;9.10;2.20;;;6.90;99.90;;;;;;5099394;28;20421;-61
2020/12/17 09:15:07;;;;;;;8.03;2.40;;;6.90;99.90;;;;;;5110655;28;20066;-61
2020/12/17 09:17:33;;;;;;;10.93;2.47;;;6.90;99.90;;;;;;5108700;28;20015;-61
2020/12/17 09:19:59;;;;;;;7.00;2.93;;;6.90;99.90;;;;;;5108715;28;20023;-61
2020/12/17 09:22:32;;;;;;;7.70;2.03;;;7.00;99.90;;;;;;5119464;28;20033;-61
2020/12/17 09:24:58;;;;;;;8.32;2.30;;;7.00;99.90;;;;;;5104809;28;20032;-62
2020/12/17 09:27:28;;;;;;;9.43;2.37;;;7.10;99.90;;;;;;5118563;28;20388;-62
2020/12/17 09:29:58;;;;;;;6.03;1.87;;;7.10;99.90;;;;;;5096082;28;20522;-62
2020/12/17 09:32:24;;;;;;;9.10;2.53;;;7.20;99.90;;;;;;5095843;28;20027;-62
2020/12/17 09:34:50;;;;;;;10.20;4.53;;;7.20;99.90;;;;;;5085786;28;20028;-62
2020/12/17 09:37:16;;;;;;;9.70;2.90;;;7.20;99.90;;;;;;5117615;28;20024;-63
2020/12/17 09:39:43;;;;;;;14.37;2.47;;;7.30;99.90;;;;;;5118004;28;20052;-62
2020/12/17 09:42:09;;;;;;;13.77;3.07;;;7.40;99.90;;;;;;5109962;28;20024;-61
2020/12/17 09:44:35;;;;;;;6.87;2.57;;;7.50;99.90;;;;;;5118474;28;20024;-62
2020/12/17 09:47:03;;;;;;;10.87;2.13;;;7.50;99.90;;;;;;5079300;28;20176;-63
2020/12/17 09:49:37;;;;;;;7.77;2.13;;;7.60;99.90;;;;;;5108437;28;20056;-62
2020/12/17 09:52:09;;;;;;;13.23;2.63;;;7.60;99.90;;;;;;5116740;28;20019;-62
2020/12/17 09:54:41;;;;;;;13.67;3.83;;;7.70;99.90;;;;;;5110119;28;20039;-62
2020/12/17 09:57:12;;;;;;;7.05;2.20;;;7.70;99.90;;;;;;5114369;28;20070;-62
2020/12/17 09:59:39;;;;;;;6.60;2.43;;;7.70;99.90;;;;;;5112534;28;20160;-63
2020/12/17 10:02:09;;;;;;;3.73;1.60;;;7.80;99.90;;;;;;5118385;28;20028;-62
2020/12/17 10:04:35;;;;;;;8.17;2.00;;;7.90;99.90;;;;;;5098759;28;20038;-62
2020/12/17 10:07:01;;;;;;;9.70;1.57;;;7.90;99.90;;;;;;5098213;28;20028;-62
2020/12/17 10:09:27;;;;;;;5.10;1.80;;;8.00;99.90;;;;;;5097798;28;20109;-63
2020/12/17 10:11:54;;;;;;;7.60;2.13;;;8.00;99.90;;;;;;5098528;28;20115;-63
2020/12/17 10:14:20;;;;;;;7.63;2.23;;;8.10;99.90;;;;;;5097867;28;20447;-63
2020/12/17 10:16:47;;;;;;;8.50;1.73;;;8.20;99.90;;;;;;5098369;28;20505;-63
2020/12/17 10:19:15;;;;;;;9.27;3.10;;;8.20;99.90;;;;;;5097557;28;20127;-63
2020/12/17 10:21:40;;;;;;;15.93;2.60;;;8.20;99.90;;;;;;5098341;28;20020;-63
2020/12/17 10:24:06;;;;;;;5.23;2.47;;;8.30;99.90;;;;;;5096760;28;20461;-63
2020/12/17 10:26:33;;;;;;;7.40;2.87;;;8.40;99.90;;;;;;5077589;28;20032;-63
2020/12/17 10:28:59;;;;;;;7.43;2.17;;;8.50;99.90;;;;;;5096156;28;20060;-63
2020/12/17 10:31:26;;;;;;;8.93;2.50;;;9.00;99.90;;;;;;5097461;28;20024;-62
2020/12/17 10:33:51;;;;;;;12.73;1.77;;;9.70;99.90;;;;;;5097975;28;20064;-62
2020/12/17 10:36:17;;;;;;;7.70;1.90;;;10.10;99.90;;;;;;5079364;28;20402;-62
2020/12/17 10:38:43;;;;;;;9.77;4.27;;;10.50;99.90;;;;;;5097709;28;20048;-62
2020/12/17 10:41:09;;;;;;;6.97;2.03;;;11.10;99.90;;;;;;5097471;28;20339;-61
2020/12/17 10:43:34;;;;;;;9.40;1.50;;;11.40;99.90;;;;;;5097597;28;20024;-61
2020/12/17 10:46:00;;;;;;;6.60;1.90;;;11.50;99.90;;;;;;5097456;28;20035;-61
2020/12/17 10:48:26;;;;;;;7.20;2.20;;;11.40;99.90;;;;;;5097001;28;20039;-61
2020/12/17 10:50:51;;;;;;;7.13;1.70;;;11.50;99.90;;;;;;5096888;28;20130;-61
2020/12/17 10:53:17;;;;;;;5.33;1.80;;;11.70;99.90;;;;;;5097370;28;20039;-61
2020/12/17 10:55:43;;;;;;;8.83;1.60;;;11.90;99.90;;;;;;5097093;28;20354;-61
2020/12/17 10:58:09;;;;;;;10.53;1.93;;;12.00;99.90;;;;;;5110489;28;20433;-60
2020/12/17 11:00:35;;;;;;;7.73;1.87;;;11.60;99.90;;;;;;5105712;28;20085;-61
2020/12/17 11:03:01;;;;;;;7.93;1.90;;;11.10;99.90;;;;;;5098530;28;20372;-60
2020/12/17 11:05:27;;;;;;;6.87;3.20;;;10.90;99.90;;;;;;5099113;28;20054;-61
2020/12/17 11:07:53;;;;;;;8.80;3.20;;;10.50;99.90;;;;;;5117454;28;20513;-60
2020/12/17 11:10:18;;;;;;;8.77;1.30;;;10.40;99.90;;;;;;5117205;28;20110;-61
2020/12/17 11:12:44;;;;;;;8.13;2.43;;;10.30;99.90;;;;;;5117778;28;20050;-62
2020/12/17 11:15:10;;;;;;;9.20;2.07;;;10.30;99.90;;;;;;5116934;28;20035;-60
2020/12/17 11:17:36;;;;;;;6.23;1.23;;;10.30;99.90;;;;;;5117355;28;20038;-61
2020/12/17 11:20:02;;;;;;;5.30;1.50;;;10.40;99.90;;;;;;5081584;28;20127;-60
2020/12/17 11:22:29;;;;;;;7.60;1.57;;;10.70;99.90;;;;;;5117148;28;20080;-61
2020/12/17 11:24:55;;;;;;;8.33;1.70;;;10.70;99.90;;;;;;5117084;28;20019;-61
2020/12/17 11:27:20;;;;;;;6.77;2.17;;;10.50;99.90;;;;;;5117351;28;20092;-60
2020/12/17 11:29:46;;;;;;;7.30;1.30;;;10.40;99.90;;;;;;5117147;28;20051;-60
2020/12/17 11:32:12;;;;;;;7.73;1.73;;;10.40;99.90;;;;;;5098140;28;20161;-60
2020/12/17 11:34:37;;;;;;;8.90;3.37;;;10.30;99.90;;;;;;5117135;28;20100;-61
2020/12/17 11:37:03;;;;;;;6.43;2.13;;;10.20;99.90;;;;;;5116716;28;20023;-61
2020/12/17 11:39:30;;;;;;;7.40;2.33;;;10.30;99.90;;;;;;5117101;28;20067;-60
2020/12/17 11:41:55;;;;;;;6.47;2.43;;;10.40;99.90;;;;;;5116651;28;20044;-61
2020/12/17 11:44:21;;;;;;;7.00;1.40;;;10.40;99.90;;;;;;5114940;28;20047;-61
2020/12/17 11:46:47;;;;;;;4.13;1.03;;;10.50;99.90;;;;;;5116352;28;20036;-61
2020/12/17 11:49:13;;;;;;;11.97;4.23;;;10.60;99.90;;;;;;5116102;28;20424;-61
2020/12/17 11:51:38;;;;;;;10.90;2.70;;;10.70;99.90;;;;;;5097709;28;20130;-61
2020/12/17 11:54:04;;;;;;;13.47;2.67;;;10.80;99.90;;;;;;5097685;28;20122;-60
2020/12/17 11:56:30;;;;;;;5.70;2.10;;;10.90;99.90;;;;;;5115801;28;20028;-60
2020/12/17 11:58:57;;;;;;;7.77;1.97;;;10.80;99.90;;;;;;5115908;28;20031;-61
2020/12/17 12:01:31;;;;;;;6.97;3.30;;;10.70;99.90;;;;;;5107543;28;20028;-60
2020/12/17 12:03:57;;;;;;;7.40;2.33;;;10.70;99.90;;;;;;5100859;28;20030;-59
2020/12/17 12:06:22;;;;;;;13.13;1.97;;;10.70;99.90;;;;;;5112301;28;20027;-60
2020/12/17 12:08:48;;;;;;;7.23;2.27;;;10.80;99.90;;;;;;5113746;28;20027;-58
2020/12/17 12:11:17;;;;;;;9.23;2.07;;;10.70;99.90;;;;;;5100064;28;20035;-59
2020/12/17 12:13:43;;;;;;;12.93;2.73;;;10.70;99.90;;;;;;5107647;28;20023;-59
2020/12/17 12:16:12;;;;;;;8.67;1.87;;;10.70;99.90;;;;;;5096529;28;20118;-59
2020/12/17 12:18:41;;;;;;;9.07;2.30;;;10.70;99.90;;;;;;5110675;28;20023;-59
2020/12/17 12:21:09;;;;;;;13.10;2.27;;;10.70;99.90;;;;;;5114794;28;20034;-59
2020/12/17 12:23:35;;;;;;;16.23;3.17;;;10.60;99.90;;;;;;5115468;28;20064;-59
2020/12/17 12:26:02;;;;;;;7.73;2.50;;;10.70;99.90;;;;;;5097657;28;20031;-61
2020/12/17 12:28:27;;;;;;;7.70;2.57;;;10.70;99.90;;;;;;5102307;28;20093;-61
2020/12/17 12:30:53;;;;;;;12.10;3.63;;;10.80;99.90;;;;;;5115004;28;20031;-60
2020/12/17 12:33:19;;;;;;;11.27;2.57;;;10.90;99.90;;;;;;5101862;28;20066;-59
2020/12/17 12:35:45;;;;;;;42.57;19.47;;;10.90;99.90;;;;;;5109185;28;20032;-60
2020/12/17 12:38:10;;;;;;;11.87;3.17;;;10.90;99.90;;;;;;5112649;28;20032;-60
2020/12/17 12:40:36;;;;;;;7.27;2.47;;;10.90;99.90;;;;;;5114813;28;20059;-60
2020/12/17 12:43:02;;;;;;;8.80;3.47;;;10.90;99.90;;;;;;5115904;28;20034;-60
2020/12/17 12:45:28;;;;;;;6.93;1.93;;;10.90;99.90;;;;;;5115219;28;20063;-60
2020/12/17 12:47:53;;;;;;;9.03;2.57;;;10.90;99.90;;;;;;5107378;28;20039;-60
2020/12/17 12:50:19;;;;;;;8.03;3.13;;;10.90;99.90;;;;;;5114166;28;20035;-60
2020/12/17 12:52:45;;;;;;;11.97;2.63;;;10.90;99.90;;;;;;5097883;28;20039;-61
2020/12/17 12:55:10;;;;;;;8.53;2.07;;;11.00;99.90;;;;;;5115240;28;20111;-60